sensor_id;sensor_type;location;lat;lon;timestamp;pressure;altitude;pressure_sealevel;temperature;humidity
8253;BME280;61313;48.396;10.008;2023-03-26T00:00:40;95746.00;;;9.29;61.14
8253;BME280;61313;48.396;10.008;2023-03-26T00:03:11;95745.22;;;9.27;60.64
8253;BME280;61313;48.396;10.008;2023-03-26T00:05:38;95744.50;;;9.23;60.23
8253;BME280;61313;48.396;10.008;2023-03-26T00:08:04;95744.28;;;9.28;59.88
8253;BME280;61313;48.396;10.008;2023-03-26T00:10:34;95744.63;;;9.22;60.82
8253;BME280;61313;48.396;10.008;2023-03-26T00:13:00;95744.13;;;9.14;60.45
8253;BME280;61313;48.396;10.008;2023-03-26T00:15:26;95748.00;;;9.24;60.58
8253;BME280;61313;48.396;10.008;2023-03-26T00:17:51;95745.13;;;9.11;61.27
8253;BME280;61313;48.396;10.008;2023-03-26T00:20:18;95739.03;;;9.10;60.96
8253;BME280;61313;48.396;10.008;2023-03-26T00:22:44;95738.88;;;9.14;61.36
8253;BME280;61313;48.396;10.008;2023-03-26T00:25:10;95747.72;;;8.94;62.12
8253;BME280;61313;48.396;10.008;2023-03-26T00:27:35;95742.66;;;9.08;61.59
8253;BME280;61313;48.396;10.008;2023-03-26T00:30:01;95735.88;;;9.04;61.12
8253;BME280;61313;48.396;10.008;2023-03-26T00:32:29;95738.72;;;8.99;61.19
8253;BME280;61313;48.396;10.008;2023-03-26T00:34:58;95741.31;;;8.99;60.89
8253;BME280;61313;48.396;10.008;2023-03-26T00:37:25;95735.31;;;8.97;61.18
8253;BME280;61313;48.396;10.008;2023-03-26T00:39:52;95740.44;;;9.00;61.44
8253;BME280;61313;48.396;10.008;2023-03-26T00:42:18;95737.38;;;9.09;61.34
8253;BME280;61313;48.396;10.008;2023-03-26T00:44:44;95736.41;;;8.93;61.39
8253;BME280;61313;48.396;10.008;2023-03-26T00:47:10;95735.25;;;8.99;61.34
8253;BME280;61313;48.396;10.008;2023-03-26T00:49:35;95728.97;;;9.03;61.67
8253;BME280;61313;48.396;10.008;2023-03-26T00:52:01;95731.09;;;8.95;61.56
8253;BME280;61313;48.396;10.008;2023-03-26T00:54:28;95736.31;;;8.95;61.67
8253;BME280;61313;48.396;10.008;2023-03-26T00:56:53;95727.41;;;8.99;61.57
8253;BME280;61313;48.396;10.008;2023-03-26T00:59:21;95729.25;;;8.97;61.56
8253;BME280;61313;48.396;10.008;2023-03-26T01:01:47;95728.78;;;8.88;61.93
8253;BME280;61313;48.396;10.008;2023-03-26T01:04:27;95722.84;;;9.02;61.33
8253;BME280;61313;48.396;10.008;2023-03-26T01:06:56;95720.09;;;9.05;61.53
8253;BME280;61313;48.396;10.008;2023-03-26T01:09:30;95719.63;;;8.97;62.17
8253;BME280;61313;48.396;10.008;2023-03-26T01:11:59;95714.75;;;8.89;61.99
8253;BME280;61313;48.396;10.008;2023-03-26T01:14:26;95718.22;;;8.90;62.20
8253;BME280;61313;48.396;10.008;2023-03-26T01:16:55;95714.25;;;9.00;62.28
8253;BME280;61313;48.396;10.008;2023-03-26T01:22:08;95701.91;;;9.02;62.50
8253;BME280;61313;48.396;10.008;2023-03-26T01:24:36;95699.06;;;9.07;62.29
8253;BME280;61313;48.396;10.008;2023-03-26T01:30:22;95698.78;;;9.13;61.89
8253;BME280;61313;48.396;10.008;2023-03-26T01:35:51;95694.06;;;9.02;62.22
8253;BME280;61313;48.396;10.008;2023-03-26T01:45:53;95672.84;;;8.91;63.24
8253;BME280;61313;48.396;10.008;2023-03-26T01:48:28;95664.53;;;9.00;62.31
8253;BME280;61313;48.396;10.008;2023-03-26T01:50:55;95650.66;;;8.98;62.63
8253;BME280;61313;48.396;10.008;2023-03-26T01:53:23;95643.16;;;8.73;63.83
8253;BME280;61313;48.396;10.008;2023-03-26T01:58:58;95648.28;;;8.94;62.74
8253;BME280;61313;48.396;10.008;2023-03-26T02:01:35;95644.59;;;8.98;62.79
8253;BME280;61313;48.396;10.008;2023-03-26T02:04:18;95654.81;;;9.02;62.49
8253;BME280;61313;48.396;10.008;2023-03-26T02:07:02;95645.44;;;8.98;62.93
8253;BME280;61313;48.396;10.008;2023-03-26T02:09:36;95640.09;;;9.00;63.36
8253;BME280;61313;48.396;10.008;2023-03-26T02:12:05;95632.34;;;8.98;63.29
8253;BME280;61313;48.396;10.008;2023-03-26T02:14:31;95634.34;;;8.93;63.49
8253;BME280;61313;48.396;10.008;2023-03-26T02:16:58;95622.56;;;8.84;64.18
8253;BME280;61313;48.396;10.008;2023-03-26T02:19:24;95620.94;;;8.82;63.61
8253;BME280;61313;48.396;10.008;2023-03-26T02:21:49;95619.47;;;8.76;64.68
8253;BME280;61313;48.396;10.008;2023-03-26T02:24:24;95614.16;;;8.78;64.65
8253;BME280;61313;48.396;10.008;2023-03-26T02:26:50;95615.56;;;8.67;64.29
8253;BME280;61313;48.396;10.008;2023-03-26T02:29:16;95606.38;;;8.76;64.21
8253;BME280;61313;48.396;10.008;2023-03-26T02:31:46;95611.72;;;8.92;63.93
8253;BME280;61313;48.396;10.008;2023-03-26T02:34:15;95599.69;;;8.53;65.14
8253;BME280;61313;48.396;10.008;2023-03-26T02:36:40;95607.78;;;8.66;65.17
8253;BME280;61313;48.396;10.008;2023-03-26T02:39:10;95599.94;;;8.83;64.24
8253;BME280;61313;48.396;10.008;2023-03-26T02:41:39;95592.78;;;8.69;65.18
8253;BME280;61313;48.396;10.008;2023-03-26T02:44:05;95591.31;;;8.64;64.68
8253;BME280;61313;48.396;10.008;2023-03-26T02:46:33;95577.00;;;8.71;64.66
8253;BME280;61313;48.396;10.008;2023-03-26T02:48:59;95585.78;;;8.70;64.52
8253;BME280;61313;48.396;10.008;2023-03-26T02:51:24;95580.88;;;8.81;63.82
8253;BME280;61313;48.396;10.008;2023-03-26T02:53:51;95576.88;;;8.74;64.01
8253;BME280;61313;48.396;10.008;2023-03-26T02:56:18;95579.78;;;8.85;64.35
8253;BME280;61313;48.396;10.008;2023-03-26T02:58:43;95573.69;;;8.85;64.21
8253;BME280;61313;48.396;10.008;2023-03-26T03:01:11;95580.63;;;8.86;63.68
8253;BME280;61313;48.396;10.008;2023-03-26T03:03:37;95576.44;;;8.47;65.92
8253;BME280;61313;48.396;10.008;2023-03-26T03:06:03;95570.63;;;8.04;66.77
8253;BME280;61313;48.396;10.008;2023-03-26T03:08:28;95573.88;;;7.52;68.88
8253;BME280;61313;48.396;10.008;2023-03-26T03:11:03;95557.41;;;8.07;67.06
8253;BME280;61313;48.396;10.008;2023-03-26T03:13:31;95554.91;;;8.42;65.69
8253;BME280;61313;48.396;10.008;2023-03-26T03:15:57;95552.16;;;8.62;64.72
8253;BME280;61313;48.396;10.008;2023-03-26T03:18:22;95546.00;;;8.46;65.62
8253;BME280;61313;48.396;10.008;2023-03-26T03:20:48;95540.22;;;8.57;65.25
8253;BME280;61313;48.396;10.008;2023-03-26T03:23:14;95532.00;;;8.64;65.29
8253;BME280;61313;48.396;10.008;2023-03-26T03:25:40;95523.56;;;8.77;64.78
8253;BME280;61313;48.396;10.008;2023-03-26T03:28:06;95520.16;;;8.75;64.71
8253;BME280;61313;48.396;10.008;2023-03-26T03:30:33;95522.63;;;8.60;65.00
8253;BME280;61313;48.396;10.008;2023-03-26T03:32:58;95513.84;;;8.61;64.91
8253;BME280;61313;48.396;10.008;2023-03-26T03:35:27;95513.16;;;8.75;64.12
8253;BME280;61313;48.396;10.008;2023-03-26T03:37:53;95507.22;;;8.89;62.85
8253;BME280;61313;48.396;10.008;2023-03-26T03:40:19;95507.22;;;8.89;63.19
8253;BME280;61313;48.396;10.008;2023-03-26T03:42:45;95516.75;;;8.90;63.26
8253;BME280;61313;48.396;10.008;2023-03-26T03:45:11;95513.75;;;8.80;63.44
8253;BME280;61313;48.396;10.008;2023-03-26T03:47:37;95500.28;;;8.88;63.00
8253;BME280;61313;48.396;10.008;2023-03-26T03:50:03;95505.00;;;8.81;63.04
8253;BME280;61313;48.396;10.008;2023-03-26T03:52:29;95500.78;;;8.79;62.90
8253;BME280;61313;48.396;10.008;2023-03-26T03:54:55;95498.63;;;8.69;63.60
8253;BME280;61313;48.396;10.008;2023-03-26T03:57:22;95499.84;;;8.80;62.93
8253;BME280;61313;48.396;10.008;2023-03-26T03:59:47;95488.78;;;8.75;63.29
8253;BME280;61313;48.396;10.008;2023-03-26T04:02:14;95489.44;;;8.78;63.36
8253;BME280;61313;48.396;10.008;2023-03-26T04:04:51;95479.75;;;8.80;63.22
8253;BME280;61313;48.396;10.008;2023-03-26T04:07:17;95476.28;;;8.80;62.68
8253;BME280;61313;48.396;10.008;2023-03-26T04:09:43;95452.00;;;8.43;64.54
8253;BME280;61313;48.396;10.008;2023-03-26T04:12:08;95458.50;;;8.53;63.97
8253;BME280;61313;48.396;10.008;2023-03-26T04:14:33;95460.22;;;8.53;64.38
8253;BME280;61313;48.396;10.008;2023-03-26T04:16:59;95452.50;;;8.51;64.68
8253;BME280;61313;48.396;10.008;2023-03-26T04:19:26;95455.94;;;8.52;64.02
8253;BME280;61313;48.396;10.008;2023-03-26T04:21:51;95450.03;;;8.48;64.26
8253;BME280;61313;48.396;10.008;2023-03-26T04:24:17;95452.78;;;8.62;63.61
8253;BME280;61313;48.396;10.008;2023-03-26T04:26:42;95460.78;;;8.42;63.83
8253;BME280;61313;48.396;10.008;2023-03-26T04:29:11;95464.31;;;8.41;64.31
8253;BME280;61313;48.396;10.008;2023-03-26T04:31:41;95470.75;;;8.16;65.27
8253;BME280;61313;48.396;10.008;2023-03-26T04:34:20;95465.50;;;8.16;65.52
8253;BME280;61313;48.396;10.008;2023-03-26T04:36:48;95458.59;;;8.33;64.62
8253;BME280;61313;48.396;10.008;2023-03-26T04:39:15;95442.53;;;8.05;65.60
8253;BME280;61313;48.396;10.008;2023-03-26T04:41:41;95450.31;;;7.71;66.59
8253;BME280;61313;48.396;10.008;2023-03-26T04:44:07;95453.44;;;7.96;65.76
8253;BME280;61313;48.396;10.008;2023-03-26T04:46:32;95459.50;;;7.97;65.55
8253;BME280;61313;48.396;10.008;2023-03-26T04:48:59;95453.53;;;8.30;65.07
8253;BME280;61313;48.396;10.008;2023-03-26T04:51:30;95452.31;;;8.37;63.93
8253;BME280;61313;48.396;10.008;2023-03-26T04:53:59;95448.50;;;8.44;64.36
8253;BME280;61313;48.396;10.008;2023-03-26T04:59:04;95425.56;;;8.49;63.82
8253;BME280;61313;48.396;10.008;2023-03-26T05:01:30;95426.56;;;8.46;63.61
8253;BME280;61313;48.396;10.008;2023-03-26T05:03:57;95435.78;;;8.54;63.83
8253;BME280;61313;48.396;10.008;2023-03-26T05:06:24;95418.41;;;8.53;63.40
8253;BME280;61313;48.396;10.008;2023-03-26T05:08:52;95420.63;;;8.60;63.44
8253;BME280;61313;48.396;10.008;2023-03-26T05:11:17;95415.00;;;8.68;63.32
8253;BME280;61313;48.396;10.008;2023-03-26T05:13:43;95415.31;;;8.62;63.44
8253;BME280;61313;48.396;10.008;2023-03-26T05:16:09;95402.88;;;8.67;63.35
8253;BME280;61313;48.396;10.008;2023-03-26T05:18:36;95400.75;;;8.74;62.88
8253;BME280;61313;48.396;10.008;2023-03-26T05:21:01;95412.91;;;8.75;62.95
8253;BME280;61313;48.396;10.008;2023-03-26T05:23:27;95408.88;;;8.85;62.12
8253;BME280;61313;48.396;10.008;2023-03-26T05:25:52;95409.34;;;8.76;62.22
8253;BME280;61313;48.396;10.008;2023-03-26T05:28:18;95408.44;;;8.77;62.28
8253;BME280;61313;48.396;10.008;2023-03-26T05:30:45;95400.84;;;8.72;62.98
8253;BME280;61313;48.396;10.008;2023-03-26T05:33:11;95403.16;;;8.61;64.11
8253;BME280;61313;48.396;10.008;2023-03-26T05:35:37;95393.25;;;8.67;63.60
8253;BME280;61313;48.396;10.008;2023-03-26T05:38:02;95389.44;;;8.40;64.11
8253;BME280;61313;48.396;10.008;2023-03-26T05:40:28;95385.28;;;8.53;63.76
8253;BME280;61313;48.396;10.008;2023-03-26T05:42:54;95375.34;;;8.60;63.64
8253;BME280;61313;48.396;10.008;2023-03-26T05:45:19;95381.34;;;8.44;64.50
8253;BME280;61313;48.396;10.008;2023-03-26T05:47:46;95379.34;;;8.32;65.29
8253;BME280;61313;48.396;10.008;2023-03-26T05:50:14;95388.56;;;8.39;64.58
8253;BME280;61313;48.396;10.008;2023-03-26T05:52:39;95387.78;;;8.55;64.33
8253;BME280;61313;48.396;10.008;2023-03-26T05:55:05;95384.94;;;8.59;63.98
8253;BME280;61313;48.396;10.008;2023-03-26T05:57:32;95375.69;;;8.69;64.49
8253;BME280;61313;48.396;10.008;2023-03-26T06:00:00;95371.47;;;8.83;64.25
8253;BME280;61313;48.396;10.008;2023-03-26T06:02:25;95368.28;;;8.78;64.03
8253;BME280;61313;48.396;10.008;2023-03-26T06:04:53;95366.50;;;8.62;65.13
8253;BME280;61313;48.396;10.008;2023-03-26T06:07:21;95351.59;;;8.47;65.58
8253;BME280;61313;48.396;10.008;2023-03-26T06:09:46;95345.91;;;8.39;65.87
8253;BME280;61313;48.396;10.008;2023-03-26T06:12:12;95349.22;;;8.25;66.85
8253;BME280;61313;48.396;10.008;2023-03-26T06:14:38;95346.97;;;8.35;66.96
8253;BME280;61313;48.396;10.008;2023-03-26T06:17:04;95350.34;;;8.54;65.98
8253;BME280;61313;48.396;10.008;2023-03-26T06:19:29;95337.53;;;8.65;65.43
8253;BME280;61313;48.396;10.008;2023-03-26T06:21:55;95336.72;;;8.65;65.45
8253;BME280;61313;48.396;10.008;2023-03-26T06:24:20;95324.19;;;8.54;66.32
8253;BME280;61313;48.396;10.008;2023-03-26T06:26:46;95324.19;;;8.54;66.34
8253;BME280;61313;48.396;10.008;2023-03-26T06:29:13;95322.63;;;8.67;66.50
8253;BME280;61313;48.396;10.008;2023-03-26T06:31:39;95323.34;;;8.54;66.63
8253;BME280;61313;48.396;10.008;2023-03-26T06:34:05;95327.03;;;8.50;67.29
8253;BME280;61313;48.396;10.008;2023-03-26T06:36:31;95326.56;;;8.59;66.50
8253;BME280;61313;48.396;10.008;2023-03-26T06:38:56;95326.50;;;8.60;66.37
8253;BME280;61313;48.396;10.008;2023-03-26T06:41:22;95307.44;;;8.74;66.91
8253;BME280;61313;48.396;10.008;2023-03-26T06:43:47;95305.59;;;8.43;68.12
8253;BME280;61313;48.396;10.008;2023-03-26T06:46:12;95301.59;;;8.36;68.93
8253;BME280;61313;48.396;10.008;2023-03-26T06:48:39;95297.72;;;8.60;68.81
8253;BME280;61313;48.396;10.008;2023-03-26T06:51:06;95300.09;;;8.32;68.25
8253;BME280;61313;48.396;10.008;2023-03-26T06:53:31;95295.13;;;8.60;67.78
8253;BME280;61313;48.396;10.008;2023-03-26T06:55:57;95281.34;;;8.23;67.84
8253;BME280;61313;48.396;10.008;2023-03-26T06:58:22;95275.97;;;8.60;67.71
8253;BME280;61313;48.396;10.008;2023-03-26T07:00:51;95253.03;;;8.32;68.52
8253;BME280;61313;48.396;10.008;2023-03-26T07:03:17;95261.78;;;8.31;68.88
8253;BME280;61313;48.396;10.008;2023-03-26T07:05:42;95253.50;;;8.40;68.09
8253;BME280;61313;48.396;10.008;2023-03-26T07:08:08;95255.19;;;8.57;68.25
8253;BME280;61313;48.396;10.008;2023-03-26T07:10:33;95252.91;;;8.66;67.95
8253;BME280;61313;48.396;10.008;2023-03-26T07:12:59;95246.25;;;8.45;68.54
8253;BME280;61313;48.396;10.008;2023-03-26T07:15:26;95233.75;;;8.50;68.15
8253;BME280;61313;48.396;10.008;2023-03-26T07:17:52;95232.50;;;8.41;68.64
8253;BME280;61313;48.396;10.008;2023-03-26T07:20:17;95223.84;;;7.90;70.57
8253;BME280;61313;48.396;10.008;2023-03-26T07:22:43;95228.47;;;8.18;69.58
8253;BME280;61313;48.396;10.008;2023-03-26T07:25:09;95226.81;;;8.33;69.67
8253;BME280;61313;48.396;10.008;2023-03-26T07:27:59;95231.91;;;8.52;68.95
8253;BME280;61313;48.396;10.008;2023-03-26T07:30:38;95209.31;;;8.51;68.91
8253;BME280;61313;48.396;10.008;2023-03-26T07:35:49;95197.81;;;8.38;69.04
8253;BME280;61313;48.396;10.008;2023-03-26T07:40:54;95186.69;;;8.50;69.93
8253;BME280;61313;48.396;10.008;2023-03-26T07:46:27;95184.59;;;8.41;69.66
8253;BME280;61313;48.396;10.008;2023-03-26T07:48:54;95188.78;;;8.27;70.71
8253;BME280;61313;48.396;10.008;2023-03-26T07:51:22;95181.31;;;8.53;69.53
8253;BME280;61313;48.396;10.008;2023-03-26T07:53:48;95174.81;;;8.60;69.19
8253;BME280;61313;48.396;10.008;2023-03-26T07:56:19;95172.97;;;8.62;68.47
8253;BME280;61313;48.396;10.008;2023-03-26T07:59:16;95165.88;;;8.48;69.70
8253;BME280;61313;48.396;10.008;2023-03-26T08:05:19;95166.63;;;8.66;69.97
8253;BME280;61313;48.396;10.008;2023-03-26T08:08:00;95165.34;;;8.74;69.30
8253;BME280;61313;48.396;10.008;2023-03-26T08:10:40;95167.81;;;8.61;70.68
8253;BME280;61313;48.396;10.008;2023-03-26T08:16:29;95164.41;;;8.11;72.82
8253;BME280;61313;48.396;10.008;2023-03-26T08:21:23;95152.50;;;8.21;71.32
8253;BME280;61313;48.396;10.008;2023-03-26T08:26:36;95162.66;;;8.27;73.26
8253;BME280;61313;48.396;10.008;2023-03-26T08:29:29;95154.75;;;8.45;71.66
8253;BME280;61313;48.396;10.008;2023-03-26T08:31:59;95146.81;;;8.46;71.94
8253;BME280;61313;48.396;10.008;2023-03-26T08:34:25;95147.22;;;8.39;72.83
8253;BME280;61313;48.396;10.008;2023-03-26T08:36:51;95147.03;;;8.10;74.10
8253;BME280;61313;48.396;10.008;2023-03-26T08:39:16;95136.63;;;8.42;72.61
8253;BME280;61313;48.396;10.008;2023-03-26T09:04:28;95101.25;;;8.19;74.13
8253;BME280;61313;48.396;10.008;2023-03-26T09:15:44;95084.16;;;8.45;72.80
8253;BME280;61313;48.396;10.008;2023-03-26T09:41:16;95086.69;;;9.07;69.80
8253;BME280;61313;48.396;10.008;2023-03-26T09:44:18;95107.94;;;9.17;69.52
8253;BME280;61313;48.396;10.008;2023-03-26T09:55:34;95118.72;;;9.41;69.17
8253;BME280;61313;48.396;10.008;2023-03-26T10:15:10;95076.25;;;9.79;69.23
8253;BME280;61313;48.396;10.008;2023-03-26T10:17:51;95079.78;;;9.92;69.18
8253;BME280;61313;48.396;10.008;2023-03-26T10:31:31;95044.13;;;11.49;64.91
8253;BME280;61313;48.396;10.008;2023-03-26T10:36:36;95035.38;;;11.87;63.87
8253;BME280;61313;48.396;10.008;2023-03-26T10:48:20;95025.03;;;12.93;60.07
8253;BME280;61313;48.396;10.008;2023-03-26T10:53:30;95014.91;;;13.11;59.27
8253;BME280;61313;48.396;10.008;2023-03-26T10:56:22;95027.03;;;12.78;59.67
8253;BME280;61313;48.396;10.008;2023-03-26T10:58:50;95029.41;;;12.46;60.33
8253;BME280;61313;48.396;10.008;2023-03-26T11:07:23;95010.16;;;12.21;62.06
8253;BME280;61313;48.396;10.008;2023-03-26T11:13:09;94997.94;;;12.44;60.17
8253;BME280;61313;48.396;10.008;2023-03-26T11:15:56;94996.53;;;12.52;59.78
8253;BME280;61313;48.396;10.008;2023-03-26T11:18:32;95017.66;;;12.39;60.95
8253;BME280;61313;48.396;10.008;2023-03-26T11:21:07;95042.19;;;12.02;61.79
8253;BME280;61313;48.396;10.008;2023-03-26T11:23:41;95057.38;;;11.60;59.11
8253;BME280;61313;48.396;10.008;2023-03-26T11:26:22;95043.75;;;10.64;62.21
8253;BME280;61313;48.396;10.008;2023-03-26T11:34:26;94994.50;;;10.01;60.88
8253;BME280;61313;48.396;10.008;2023-03-26T11:36:55;95014.75;;;9.84;61.74
8253;BME280;61313;48.396;10.008;2023-03-26T11:39:27;95015.34;;;10.16;61.62
8253;BME280;61313;48.396;10.008;2023-03-26T11:42:03;95019.44;;;10.35;61.40
8253;BME280;61313;48.396;10.008;2023-03-26T11:44:37;95021.50;;;10.70;61.24
8253;BME280;61313;48.396;10.008;2023-03-26T11:47:06;95027.69;;;10.69;62.30
8253;BME280;61313;48.396;10.008;2023-03-26T11:49:35;95022.75;;;10.64;61.93
8253;BME280;61313;48.396;10.008;2023-03-26T11:52:01;95011.75;;;10.72;61.55
8253;BME280;61313;48.396;10.008;2023-03-26T11:54:28;95003.47;;;10.78;62.33
8253;BME280;61313;48.396;10.008;2023-03-26T11:57:04;95003.59;;;10.89;62.85
8253;BME280;61313;48.396;10.008;2023-03-26T12:04:43;95021.44;;;11.10;61.91
8253;BME280;61313;48.396;10.008;2023-03-26T12:07:21;95017.97;;;10.84;61.55
8253;BME280;61313;48.396;10.008;2023-03-26T12:10:19;95026.66;;;10.84;61.04
8253;BME280;61313;48.396;10.008;2023-03-26T12:12:46;95049.75;;;10.79;60.30
8253;BME280;61313;48.396;10.008;2023-03-26T12:15:14;95062.50;;;10.58;59.65
8253;BME280;61313;48.396;10.008;2023-03-26T12:17:40;95068.75;;;10.43;60.31
8253;BME280;61313;48.396;10.008;2023-03-26T12:22:54;95034.03;;;10.25;60.43
8253;BME280;61313;48.396;10.008;2023-03-26T12:25:28;95006.06;;;10.11;61.35
8253;BME280;61313;48.396;10.008;2023-03-26T12:30:39;94990.34;;;10.11;58.79
8253;BME280;61313;48.396;10.008;2023-03-26T12:33:24;94979.78;;;10.12;57.26
8253;BME280;61313;48.396;10.008;2023-03-26T12:35:51;94984.31;;;10.37;57.66
8253;BME280;61313;48.396;10.008;2023-03-26T12:38:23;94984.31;;;10.50;57.57
8253;BME280;61313;48.396;10.008;2023-03-26T12:43:51;94985.13;;;11.29;55.45
8253;BME280;61313;48.396;10.008;2023-03-26T12:46:25;94996.44;;;11.42;56.07
8253;BME280;61313;48.396;10.008;2023-03-26T12:48:52;94993.59;;;11.45;57.07
8253;BME280;61313;48.396;10.008;2023-03-26T12:54:26;95004.97;;;11.46;58.55
8253;BME280;61313;48.396;10.008;2023-03-26T13:08:46;94965.88;;;11.78;57.86
8253;BME280;61313;48.396;10.008;2023-03-26T13:13:57;94944.97;;;11.90;56.21
8253;BME280;61313;48.396;10.008;2023-03-26T13:16:38;94937.13;;;12.01;56.45
8253;BME280;61313;48.396;10.008;2023-03-26T13:28:02;94899.81;;;12.20;57.05
8253;BME280;61313;48.396;10.008;2023-03-26T13:39:21;94899.00;;;12.31;58.29
8253;BME280;61313;48.396;10.008;2023-03-26T13:47:35;94899.31;;;12.15;58.33
8253;BME280;61313;48.396;10.008;2023-03-26T13:50:06;94902.38;;;12.08;59.25
8253;BME280;61313;48.396;10.008;2023-03-26T13:52:50;94894.50;;;12.08;59.54
8253;BME280;61313;48.396;10.008;2023-03-26T13:55:27;94895.13;;;12.12;59.88
8253;BME280;61313;48.396;10.008;2023-03-26T14:03:19;94868.50;;;11.93;60.07
8253;BME280;61313;48.396;10.008;2023-03-26T14:05:49;94861.16;;;11.85;58.43
8253;BME280;61313;48.396;10.008;2023-03-26T14:08:20;94854.75;;;11.76;55.57
8253;BME280;61313;48.396;10.008;2023-03-26T14:10:51;94850.88;;;11.82;54.68
8253;BME280;61313;48.396;10.008;2023-03-26T14:13:24;94848.81;;;11.74;55.01
8253;BME280;61313;48.396;10.008;2023-03-26T14:15:58;94844.63;;;11.72;54.27
8253;BME280;61313;48.396;10.008;2023-03-26T14:18:36;94856.16;;;11.69;54.61
8253;BME280;61313;48.396;10.008;2023-03-26T14:27:03;94843.41;;;11.89;54.49
8253;BME280;61313;48.396;10.008;2023-03-26T14:29:50;94837.97;;;12.03;54.56
8253;BME280;61313;48.396;10.008;2023-03-26T14:40:57;94806.63;;;12.58;53.15
8253;BME280;61313;48.396;10.008;2023-03-26T14:53:44;94801.31;;;13.37;49.31
8253;BME280;61313;48.396;10.008;2023-03-26T14:59:01;94799.41;;;13.27;44.62
8253;BME280;61313;48.396;10.008;2023-03-26T15:18:41;94806.97;;;12.98;41.10
8253;BME280;61313;48.396;10.008;2023-03-26T15:45:35;94833.34;;;12.18;40.10
8253;BME280;61313;48.396;10.008;2023-03-26T15:50:38;94827.50;;;12.25;41.01
8253;BME280;61313;48.396;10.008;2023-03-26T16:04:42;94828.16;;;12.05;41.68
8253;BME280;61313;48.396;10.008;2023-03-26T16:12:52;94831.25;;;11.99;41.92
8253;BME280;61313;48.396;10.008;2023-03-26T16:15:37;94828.84;;;11.96;42.68
8253;BME280;61313;48.396;10.008;2023-03-26T16:23:34;94832.66;;;11.92;43.08
8253;BME280;61313;48.396;10.008;2023-03-26T16:31:29;94848.44;;;11.92;44.35
8253;BME280;61313;48.396;10.008;2023-03-26T16:36:34;94876.28;;;11.57;50.65
8253;BME280;61313;48.396;10.008;2023-03-26T16:41:30;94887.56;;;11.10;54.87
8253;BME280;61313;48.396;10.008;2023-03-26T16:52:39;94914.47;;;10.75;58.03
8253;BME280;61313;48.396;10.008;2023-03-26T17:06:55;94944.47;;;10.71;57.52
8253;BME280;61313;48.396;10.008;2023-03-26T17:10:06;94940.59;;;10.64;57.68
8253;BME280;61313;48.396;10.008;2023-03-26T17:12:41;94942.56;;;10.47;58.14
8253;BME280;61313;48.396;10.008;2023-03-26T17:15:34;94937.63;;;10.43;58.06
8253;BME280;61313;48.396;10.008;2023-03-26T17:21:06;94956.59;;;10.33;57.17
8253;BME280;61313;48.396;10.008;2023-03-26T17:27:01;94946.72;;;9.97;57.38
8253;BME280;61313;48.396;10.008;2023-03-26T17:32:14;94967.56;;;9.99;57.73
8253;BME280;61313;48.396;10.008;2023-03-26T17:44:51;94982.03;;;9.77;56.68
8253;BME280;61313;48.396;10.008;2023-03-26T17:49:55;94989.69;;;9.80;55.29
8253;BME280;61313;48.396;10.008;2023-03-26T17:52:28;94983.16;;;9.73;55.77
8253;BME280;61313;48.396;10.008;2023-03-26T17:54:59;94982.34;;;9.58;57.05
8253;BME280;61313;48.396;10.008;2023-03-26T17:57:56;94984.06;;;9.59;57.29
8253;BME280;61313;48.396;10.008;2023-03-26T18:00:42;94978.16;;;9.56;56.84
8253;BME280;61313;48.396;10.008;2023-03-26T18:03:35;94975.44;;;9.57;57.03
8253;BME280;61313;48.396;10.008;2023-03-26T18:06:11;94980.78;;;9.56;55.78
8253;BME280;61313;48.396;10.008;2023-03-26T18:16:43;94986.13;;;9.40;56.18
8253;BME280;61313;48.396;10.008;2023-03-26T18:19:12;94988.91;;;9.51;56.33
8253;BME280;61313;48.396;10.008;2023-03-26T18:21:48;94995.19;;;9.48;55.95
8253;BME280;61313;48.396;10.008;2023-03-26T18:24:23;94993.31;;;9.50;56.41
8253;BME280;61313;48.396;10.008;2023-03-26T18:26:54;94993.34;;;9.36;56.66
8253;BME280;61313;48.396;10.008;2023-03-26T18:29:28;94982.38;;;9.44;57.00
8253;BME280;61313;48.396;10.008;2023-03-26T18:31:59;94989.00;;;9.49;55.98
8253;BME280;61313;48.396;10.008;2023-03-26T18:34:32;94982.94;;;9.49;56.62
8253;BME280;61313;48.396;10.008;2023-03-26T18:39:36;95000.06;;;9.54;55.71
8253;BME280;61313;48.396;10.008;2023-03-26T18:42:03;94999.88;;;9.43;56.31
8253;BME280;61313;48.396;10.008;2023-03-26T18:44:31;94995.56;;;9.42;56.98
8253;BME280;61313;48.396;10.008;2023-03-26T18:47:04;94998.47;;;9.23;56.96
8253;BME280;61313;48.396;10.008;2023-03-26T18:49:30;95003.41;;;9.14;57.77
8253;BME280;61313;48.396;10.008;2023-03-26T18:51:55;94997.06;;;9.32;56.54
8253;BME280;61313;48.396;10.008;2023-03-26T18:54:21;94996.97;;;9.33;57.09
8253;BME280;61313;48.396;10.008;2023-03-26T18:56:47;94996.88;;;9.35;56.71
8253;BME280;61313;48.396;10.008;2023-03-26T18:59:28;94997.34;;;9.42;56.33
8253;BME280;61313;48.396;10.008;2023-03-26T19:01:57;95002.78;;;9.39;56.78
8253;BME280;61313;48.396;10.008;2023-03-26T19:04:27;95011.09;;;9.31;57.20
8253;BME280;61313;48.396;10.008;2023-03-26T19:06:57;95001.81;;;9.40;56.35
8253;BME280;61313;48.396;10.008;2023-03-26T19:09:23;94996.69;;;9.38;56.17
8253;BME280;61313;48.396;10.008;2023-03-26T19:11:55;95008.38;;;9.18;57.26
8253;BME280;61313;48.396;10.008;2023-03-26T19:14:21;94998.28;;;9.26;57.48
8253;BME280;61313;48.396;10.008;2023-03-26T19:16:54;94988.19;;;9.35;57.38
8253;BME280;61313;48.396;10.008;2023-03-26T19:19:25;94994.16;;;9.37;56.78
8253;BME280;61313;48.396;10.008;2023-03-26T19:21:54;94988.28;;;9.33;57.11
8253;BME280;61313;48.396;10.008;2023-03-26T19:24:20;94990.16;;;9.31;57.09
8253;BME280;61313;48.396;10.008;2023-03-26T19:26:47;94984.72;;;9.34;56.54
8253;BME280;61313;48.396;10.008;2023-03-26T19:29:14;94979.03;;;9.27;57.05
8253;BME280;61313;48.396;10.008;2023-03-26T19:31:41;94979.50;;;9.34;56.95
8253;BME280;61313;48.396;10.008;2023-03-26T19:36:58;94975.78;;;9.24;57.62
8253;BME280;61313;48.396;10.008;2023-03-26T19:39:43;94978.75;;;9.18;58.02
8253;BME280;61313;48.396;10.008;2023-03-26T19:42:19;94979.03;;;9.27;57.12
8253;BME280;61313;48.396;10.008;2023-03-26T19:44:45;94989.22;;;9.18;57.11